createdAt,value
2023-05-02T00:00:48.234Z,31.42
2023-05-02T00:01:48.332Z,31.44
2023-05-02T00:02:48.519Z,31.45
2023-05-02T00:03:48.355Z,31.45
2023-05-02T00:04:48.368Z,31.43
2023-05-02T00:05:48.405Z,31.44
2023-05-02T00:06:48.493Z,31.43
2023-05-02T00:07:48.526Z,31.41
2023-05-02T00:08:48.574Z,31.42
2023-05-02T00:09:48.605Z,31.43
2023-05-02T00:10:48.631Z,31.44
2023-05-02T00:11:48.704Z,31.41
2023-05-02T00:12:48.756Z,31.43
2023-05-02T00:13:48.833Z,31.41
2023-05-02T00:14:48.846Z,31.45
2023-05-02T00:15:48.905Z,31.43
2023-05-02T00:16:49.116Z,31.42
2023-05-02T00:17:49.096Z,31.43
2023-05-02T00:18:49.088Z,31.43
2023-05-02T00:19:49.154Z,31.42
2023-05-02T00:20:49.243Z,31.44
2023-05-02T00:21:49.239Z,31.43
2023-05-02T00:22:49.297Z,31.44
2023-05-02T00:23:49.327Z,31.45
2023-05-02T00:24:49.374Z,31.44
2023-05-02T00:25:49.425Z,31.46
2023-05-02T00:26:49.437Z,31.43
2023-05-02T00:27:49.496Z,31.44
2023-05-02T00:28:49.538Z,31.45
2023-05-02T00:29:49.587Z,31.43
2023-05-02T00:30:49.697Z,31.46
2023-05-02T00:31:49.708Z,31.45
2023-05-02T00:32:49.810Z,31.45
2023-05-02T00:33:49.834Z,31.43
2023-05-02T00:34:49.892Z,31.43
2023-05-02T00:35:49.952Z,31.44
2023-05-02T00:36:49.996Z,31.45
2023-05-02T00:37:50.083Z,31.44
2023-05-02T00:38:50.142Z,31.42
2023-05-02T00:39:50.176Z,31.45
2023-05-02T00:40:50.233Z,31.45
2023-05-02T00:41:50.288Z,31.43
2023-05-02T00:42:50.364Z,31.44
2023-05-02T00:43:50.406Z,31.41
2023-05-02T00:44:50.452Z,31.44
2023-05-02T00:45:50.470Z,31.42
2023-05-02T00:46:50.568Z,31.45
2023-05-02T00:47:50.592Z,31.43
2023-05-02T00:48:50.593Z,31.42
2023-05-02T00:49:50.641Z,31.42
2023-05-02T00:50:50.677Z,31.42
2023-05-02T00:51:50.731Z,31.42
2023-05-02T00:52:50.762Z,31.40
2023-05-02T00:53:50.806Z,31.42
2023-05-02T00:54:50.832Z,31.42
2023-05-02T00:55:50.892Z,31.40
2023-05-02T00:56:50.910Z,31.41
2023-05-02T00:57:50.964Z,31.41
2023-05-02T00:58:51.008Z,31.42
2023-05-02T00:59:51.096Z,31.42
2023-05-02T01:00:51.096Z,31.40
2023-05-02T01:01:51.192Z,31.40
2023-05-02T01:02:51.366Z,31.41
2023-05-02T01:03:51.328Z,31.40
2023-05-02T01:04:51.282Z,31.40
2023-05-02T01:05:51.334Z,31.41
2023-05-02T01:06:51.471Z,31.39
2023-05-02T01:07:51.466Z,31.39
2023-05-02T01:08:51.502Z,31.39
2023-05-02T01:09:51.572Z,31.38
2023-05-02T01:10:51.633Z,31.38
2023-05-02T01:11:51.651Z,31.38
2023-05-02T01:12:51.699Z,31.38
2023-05-02T01:13:51.757Z,31.38
2023-05-02T01:14:51.792Z,31.38
2023-05-02T01:15:51.904Z,31.40
2023-05-02T01:16:51.849Z,31.38
2023-05-02T01:17:51.956Z,31.40
2023-05-02T01:18:51.899Z,31.39
2023-05-02T01:19:51.945Z,31.41
2023-05-02T01:20:51.992Z,31.39
2023-05-02T01:21:52.019Z,31.38
2023-05-02T01:22:52.070Z,31.40
2023-05-02T01:23:52.106Z,31.39
2023-05-02T01:24:52.169Z,31.38
2023-05-02T01:25:52.203Z,31.38
2023-05-02T01:26:52.279Z,31.38
2023-05-02T01:27:52.324Z,31.37
2023-05-02T01:28:52.375Z,31.38
2023-05-02T01:29:52.452Z,31.37
2023-05-02T01:30:52.509Z,31.37
2023-05-02T01:31:52.650Z,31.37
2023-05-02T01:32:52.676Z,31.36
2023-05-02T01:33:52.638Z,31.36
2023-05-02T01:34:52.776Z,31.37
2023-05-02T01:35:52.756Z,31.37
2023-05-02T01:36:52.827Z,31.36
2023-05-02T01:37:52.855Z,31.37
2023-05-02T01:38:52.910Z,31.35
2023-05-02T01:39:52.971Z,31.37
2023-05-02T01:40:53.020Z,31.37
2023-05-02T01:41:53.059Z,31.39
2023-05-02T01:42:53.102Z,31.37
2023-05-02T01:43:53.125Z,31.35
2023-05-02T01:44:53.180Z,31.33
2023-05-02T01:45:53.211Z,31.35
2023-05-02T01:46:53.336Z,31.34
2023-05-02T01:47:53.286Z,31.33
2023-05-02T01:48:53.305Z,31.35
2023-05-02T01:49:53.363Z,31.34
2023-05-02T01:50:53.421Z,31.33
2023-05-02T01:51:53.473Z,31.36
2023-05-02T01:52:53.503Z,31.32
2023-05-02T01:53:53.517Z,31.34
2023-05-02T01:54:53.573Z,31.34
2023-05-02T01:55:53.581Z,31.34
2023-05-02T01:56:53.624Z,31.33
2023-05-02T01:57:53.663Z,31.35
2023-05-02T01:58:53.689Z,31.34
2023-05-02T01:59:53.730Z,31.33
2023-05-02T02:00:53.801Z,31.33
2023-05-02T02:01:53.831Z,31.33
2023-05-02T02:02:53.895Z,31.33
2023-05-02T02:03:53.941Z,31.33
2023-05-02T02:04:53.936Z,31.30
2023-05-02T02:05:53.937Z,31.31
2023-05-02T02:06:54.036Z,31.32
2023-05-02T02:07:54.003Z,31.32
2023-05-02T02:08:54.014Z,31.29
2023-05-02T02:09:54.051Z,31.30
2023-05-02T02:10:54.052Z,31.32
2023-05-02T02:11:54.071Z,31.29
2023-05-02T02:12:54.158Z,31.28
2023-05-02T02:13:54.189Z,31.28
2023-05-02T02:14:54.203Z,31.30
2023-05-02T02:15:54.233Z,31.30
2023-05-02T02:16:54.299Z,31.29
2023-05-02T02:17:54.316Z,31.29
2023-05-02T02:18:54.311Z,31.30
2023-05-02T02:19:54.341Z,31.29
2023-05-02T02:20:54.347Z,31.28
2023-05-02T02:21:54.366Z,31.30
2023-05-02T02:22:54.349Z,31.28
2023-05-02T02:23:54.370Z,31.27
2023-05-02T02:24:54.574Z,31.29
2023-05-02T02:25:54.431Z,31.28
2023-05-02T02:26:54.477Z,31.28
2023-05-02T02:27:54.493Z,31.27
2023-05-02T02:28:54.515Z,31.28
2023-05-02T02:29:54.536Z,31.27
2023-05-02T02:30:54.609Z,31.28
2023-05-02T02:31:54.612Z,31.30
2023-05-02T02:32:54.706Z,31.29
2023-05-02T02:33:54.673Z,31.29
2023-05-02T02:34:54.696Z,31.27
2023-05-02T02:35:54.751Z,31.27
2023-05-02T02:36:54.772Z,31.27
2023-05-02T02:37:54.791Z,31.28
2023-05-02T02:38:54.817Z,31.26
2023-05-02T02:39:54.853Z,31.28
2023-05-02T02:40:54.879Z,31.24
2023-05-02T02:41:54.907Z,31.27
2023-05-02T02:42:54.911Z,31.24
2023-05-02T02:43:54.964Z,31.26
2023-05-02T02:44:54.968Z,31.26
2023-05-02T02:45:55.099Z,31.26
2023-05-02T02:46:55.017Z,31.26
2023-05-02T02:47:55.161Z,31.24
2023-05-02T02:48:55.046Z,31.27
2023-05-02T02:49:55.077Z,31.25
2023-05-02T02:50:55.113Z,31.26
2023-05-02T02:51:55.119Z,31.24
2023-05-02T02:52:55.152Z,31.26
2023-05-02T02:53:55.147Z,31.26
2023-05-02T02:54:55.156Z,31.25
2023-05-02T02:55:55.181Z,31.25
2023-05-02T02:56:55.189Z,31.23
2023-05-02T02:57:55.224Z,31.24
2023-05-02T02:58:55.232Z,31.25
2023-05-02T02:59:55.246Z,31.25
2023-05-02T03:00:55.265Z,31.24
2023-05-02T03:01:55.298Z,31.26
2023-05-02T03:02:55.361Z,31.26
2023-05-02T03:03:55.360Z,31.25
2023-05-02T03:04:55.309Z,31.29
2023-05-02T03:05:55.342Z,31.27
2023-05-02T03:06:55.436Z,31.30
2023-05-02T03:07:55.382Z,31.29
2023-05-02T03:08:55.366Z,31.28
2023-05-02T03:09:55.385Z,31.27
2023-05-02T03:10:55.410Z,31.27
2023-05-02T03:11:55.414Z,31.27
2023-05-02T03:12:55.456Z,31.25
2023-05-02T03:13:55.458Z,31.25
2023-05-02T03:14:55.473Z,31.24
2023-05-02T03:15:55.549Z,31.26
2023-05-02T03:16:55.482Z,31.27
2023-05-02T03:17:55.496Z,31.25
2023-05-02T03:18:55.464Z,31.26
2023-05-02T03:19:55.448Z,31.25
2023-05-02T03:20:55.451Z,31.24
2023-05-02T03:21:55.472Z,31.26
2023-05-02T03:22:55.492Z,31.23
2023-05-02T03:23:55.482Z,31.24
2023-05-02T03:24:55.495Z,31.24
2023-05-02T03:25:55.523Z,31.23
2023-05-02T03:26:55.533Z,31.25
2023-05-02T03:27:55.563Z,31.23
2023-05-02T03:28:55.558Z,31.24
2023-05-02T03:29:55.551Z,31.22
2023-05-02T03:30:55.598Z,31.24
2023-05-02T03:31:55.637Z,31.22
2023-05-02T03:32:55.689Z,31.24
2023-05-02T03:33:55.643Z,31.25
2023-05-02T03:34:55.662Z,31.26
2023-05-02T03:35:55.695Z,31.24
2023-05-02T03:36:55.708Z,31.25
2023-05-02T03:37:55.743Z,31.24
2023-05-02T03:38:55.756Z,31.22
2023-05-02T03:39:55.754Z,31.23
2023-05-02T03:40:55.773Z,31.24
2023-05-02T03:41:55.778Z,31.23
2023-05-02T03:42:55.795Z,31.24
2023-05-02T03:43:55.793Z,31.25
2023-05-02T03:44:55.785Z,31.22
2023-05-02T03:45:55.817Z,31.24
2023-05-02T03:46:55.845Z,31.24
2023-05-02T03:47:55.846Z,31.27
2023-05-02T03:48:55.785Z,31.24
2023-05-02T03:49:55.821Z,31.24
2023-05-02T03:50:55.817Z,31.25
2023-05-02T03:51:55.859Z,31.26
2023-05-02T03:52:55.886Z,31.25
2023-05-02T03:53:55.912Z,31.28
2023-05-02T03:54:55.927Z,31.25
2023-05-02T03:55:55.944Z,31.27
2023-05-02T03:56:55.920Z,31.28
2023-05-02T03:57:55.932Z,31.27
2023-05-02T03:58:55.933Z,31.26
2023-05-02T03:59:55.936Z,31.27
2023-05-02T04:00:55.938Z,31.24
2023-05-02T04:01:55.933Z,31.28
2023-05-02T04:02:56.031Z,31.27
2023-05-02T04:03:55.986Z,31.24
2023-05-02T04:04:56.001Z,31.27
2023-05-02T04:05:56.020Z,31.25
2023-05-02T04:06:56.091Z,31.24
2023-05-02T04:07:56.085Z,31.26
2023-05-02T04:08:56.089Z,31.27
2023-05-02T04:09:56.107Z,31.28
2023-05-02T04:10:56.117Z,31.29
2023-05-02T04:11:56.162Z,31.29
2023-05-02T04:12:56.154Z,31.28
2023-05-02T04:13:56.163Z,31.29
2023-05-02T04:14:56.200Z,31.28
2023-05-02T04:15:56.170Z,31.28
2023-05-02T04:16:56.179Z,31.27
2023-05-02T04:17:56.214Z,31.29
2023-05-02T04:18:56.185Z,31.31
2023-05-02T04:19:56.172Z,31.30
2023-05-02T04:20:56.166Z,31.29
2023-05-02T04:21:56.156Z,31.31
2023-05-02T04:22:56.195Z,31.33
2023-05-02T04:23:56.186Z,31.29
2023-05-02T04:24:56.207Z,31.31
2023-05-02T04:25:56.227Z,31.31
2023-05-02T04:26:56.229Z,31.32
2023-05-02T04:27:56.256Z,31.34
2023-05-02T04:28:56.256Z,31.33
2023-05-02T04:29:56.298Z,31.32
2023-05-02T04:30:56.359Z,31.32
2023-05-02T04:31:56.326Z,31.34
2023-05-02T04:32:56.414Z,31.32
2023-05-02T04:33:56.388Z,31.34
2023-05-02T04:34:56.373Z,31.32
2023-05-02T04:35:56.380Z,31.33
2023-05-02T04:36:56.459Z,31.34
2023-05-02T04:37:56.446Z,31.32
2023-05-02T04:38:56.491Z,31.33
2023-05-02T04:39:56.513Z,31.32
2023-05-02T04:40:56.492Z,31.33
2023-05-02T04:41:56.535Z,31.32
2023-05-02T04:42:56.491Z,31.32
2023-05-02T04:43:56.507Z,31.32
2023-05-02T04:44:56.497Z,31.32
2023-05-02T04:45:56.534Z,31.30
2023-05-02T04:46:56.493Z,31.30
2023-05-02T04:47:56.535Z,31.32
2023-05-02T04:48:56.484Z,31.31
2023-05-02T04:49:56.525Z,31.33
2023-05-02T04:50:56.512Z,31.32
2023-05-02T04:51:56.493Z,31.34
2023-05-02T04:52:56.488Z,31.30
2023-05-02T04:53:56.478Z,31.33
2023-05-02T04:54:56.485Z,31.33
2023-05-02T04:55:56.497Z,31.34
2023-05-02T04:56:56.519Z,31.30
2023-05-02T04:57:56.517Z,31.36
2023-05-02T04:58:56.531Z,31.30
2023-05-02T04:59:56.560Z,31.30
2023-05-02T05:00:56.544Z,31.28
2023-05-02T05:01:56.594Z,31.31
2023-05-02T05:02:57.963Z,31.28
2023-05-02T05:03:56.800Z,31.28
2023-05-02T05:04:56.820Z,31.24
2023-05-02T05:05:56.686Z,31.28
2023-05-02T05:06:56.708Z,31.25
2023-05-02T05:07:56.680Z,31.20
2023-05-02T05:08:56.673Z,31.25
2023-05-02T05:09:56.705Z,31.28
2023-05-02T05:10:56.710Z,31.23
2023-05-02T05:11:56.723Z,31.21
2023-05-02T05:12:56.726Z,31.18
2023-05-02T05:13:56.761Z,31.16
2023-05-02T05:14:56.777Z,31.16
2023-05-02T05:15:56.788Z,31.21
2023-05-02T05:16:56.802Z,31.15
2023-05-02T05:17:56.833Z,31.15
2023-05-02T05:18:56.882Z,31.16
2023-05-02T05:19:56.795Z,31.12
2023-05-02T05:20:56.820Z,31.12
2023-05-02T05:21:56.832Z,31.11
2023-05-02T05:22:56.798Z,31.15
2023-05-02T05:23:56.825Z,31.12
2023-05-02T05:24:56.876Z,31.13
2023-05-02T05:25:56.888Z,31.11
2023-05-02T05:26:56.914Z,31.07
2023-05-02T05:27:56.936Z,31.06
2023-05-02T05:28:56.939Z,31.05
2023-05-02T05:29:56.964Z,31.06
2023-05-02T05:30:56.998Z,31.06
2023-05-02T05:31:57.017Z,31.74
2023-05-02T05:32:57.017Z,32.12
2023-05-02T05:33:57.001Z,32.46
2023-05-02T05:34:56.968Z,33.03
2023-05-02T05:35:56.976Z,32.53
2023-05-02T05:36:56.995Z,32.28
2023-05-02T05:37:57.027Z,33.03
2023-05-02T05:38:57.059Z,33.56
2023-05-02T05:39:57.131Z,33.61
2023-05-02T05:40:57.145Z,33.96
2023-05-02T05:41:57.193Z,34.44
2023-05-02T05:42:57.283Z,34.91
2023-05-02T05:43:57.332Z,34.99
2023-05-02T05:44:57.454Z,35.22
2023-05-02T05:45:57.470Z,35.66
2023-05-02T05:46:57.531Z,35.64
2023-05-02T05:47:57.885Z,35.39
2023-05-02T05:48:57.623Z,35.28
2023-05-02T05:49:57.979Z,35.36
2023-05-02T05:50:57.757Z,35.33
2023-05-02T05:51:57.754Z,35.24
2023-05-02T05:52:57.759Z,35.82
2023-05-02T05:53:57.794Z,35.62
2023-05-02T05:54:57.801Z,35.93
2023-05-02T05:55:57.848Z,36.17
2023-05-02T05:56:57.881Z,36.13
2023-05-02T05:57:57.894Z,36.40
2023-05-02T05:58:57.901Z,36.61
2023-05-02T05:59:58.178Z,36.17
2023-05-02T06:00:57.930Z,36.19
2023-05-02T06:01:57.941Z,36.02
2023-05-02T06:02:58.047Z,36.01
2023-05-02T06:03:58.029Z,36.12
2023-05-02T06:04:57.968Z,36.14
2023-05-02T06:05:57.924Z,36.20
2023-05-02T06:06:58.015Z,36.19
2023-05-02T06:07:57.927Z,36.12
2023-05-02T06:08:57.918Z,36.05
2023-05-02T06:09:58.201Z,36.02
2023-05-02T06:10:57.929Z,36.06
2023-05-02T06:11:57.919Z,36.03
2023-05-02T06:12:58.369Z,36.04
2023-05-02T06:13:57.941Z,36.05
2023-05-02T06:14:57.931Z,36.19
2023-05-02T06:15:57.996Z,36.12
2023-05-02T06:16:57.942Z,36.00
2023-05-02T06:17:58.495Z,35.97
2023-05-02T06:18:57.961Z,36.02
2023-05-02T06:19:58.139Z,36.00
2023-05-02T06:20:57.955Z,36.00
2023-05-02T06:21:57.973Z,36.14
2023-05-02T06:22:57.973Z,35.81
2023-05-02T06:23:57.960Z,35.45
2023-05-02T06:24:57.967Z,35.58
2023-05-02T06:25:57.980Z,35.30
2023-05-02T06:26:58.000Z,35.36
2023-05-02T06:27:58.365Z,35.12
2023-05-02T06:28:58.015Z,35.24
2023-05-02T06:29:58.262Z,35.08
2023-05-02T06:30:58.093Z,35.18
2023-05-02T06:31:58.262Z,35.31
2023-05-02T06:32:58.414Z,35.87
2023-05-02T06:33:58.174Z,36.21
2023-05-02T06:34:58.367Z,37.03
2023-05-02T06:35:59.965Z,37.45
2023-05-02T06:36:58.275Z,37.61
2023-05-02T06:37:58.235Z,37.83
2023-05-02T06:38:58.266Z,37.89
2023-05-02T06:39:58.519Z,37.77
2023-05-02T06:40:58.211Z,37.56
2023-05-02T06:41:58.198Z,37.68
2023-05-02T06:42:58.203Z,37.70
2023-05-02T06:43:58.206Z,37.07
2023-05-02T06:44:58.382Z,37.37
2023-05-02T06:45:58.166Z,37.30
2023-05-02T06:46:58.191Z,37.28
2023-05-02T06:47:58.428Z,37.13
2023-05-02T06:48:58.144Z,36.71
2023-05-02T06:49:58.457Z,36.28
2023-05-02T06:50:58.132Z,36.52
2023-05-02T06:51:58.140Z,36.51
2023-05-02T06:52:58.139Z,36.38
2023-05-02T06:53:58.117Z,36.12
2023-05-02T06:54:58.371Z,36.09
2023-05-02T06:55:58.112Z,36.31
2023-05-02T06:56:58.107Z,36.46
2023-05-02T06:57:58.119Z,36.61
2023-05-02T06:58:58.097Z,36.64
2023-05-02T06:59:58.763Z,36.35
2023-05-02T07:00:58.087Z,36.21
2023-05-02T07:01:58.099Z,36.48
2023-05-02T07:02:58.392Z,36.40
2023-05-02T07:03:58.083Z,36.36
2023-05-02T07:04:58.043Z,36.35
2023-05-02T07:05:58.059Z,36.41
2023-05-02T07:06:58.113Z,36.24
2023-05-02T07:07:58.029Z,36.23
2023-05-02T07:08:58.015Z,36.49
2023-05-02T07:09:58.212Z,36.57
2023-05-02T07:10:58.013Z,36.57
2023-05-02T07:11:57.994Z,36.47
2023-05-02T07:12:58.383Z,36.88
2023-05-02T07:13:57.974Z,36.56
2023-05-02T07:14:58.388Z,36.39
2023-05-02T07:15:57.971Z,36.62
2023-05-02T07:16:57.978Z,36.54
2023-05-02T07:17:58.022Z,36.53
2023-05-02T07:18:57.957Z,36.66
2023-05-02T07:19:57.960Z,36.21
2023-05-02T07:20:57.975Z,36.18
2023-05-02T07:21:58.042Z,36.07
2023-05-02T07:22:58.388Z,36.30
2023-05-02T07:23:58.124Z,36.22
2023-05-02T07:24:58.404Z,36.22
2023-05-02T07:25:58.269Z,36.06
2023-05-02T07:26:58.296Z,36.15
2023-05-02T07:27:58.384Z,36.83
2023-05-02T07:28:58.328Z,37.39
2023-05-02T07:29:58.684Z,38.13
2023-05-02T07:30:58.415Z,38.03
2023-05-02T07:31:58.483Z,37.96
2023-05-02T07:32:58.609Z,37.74
2023-05-02T07:33:58.531Z,37.63
2023-05-02T07:34:58.554Z,37.31
2023-05-02T07:35:58.575Z,37.12
2023-05-02T07:36:58.557Z,37.39
2023-05-02T07:37:58.560Z,37.70
2023-05-02T07:38:58.587Z,37.61
2023-05-02T07:39:59.087Z,37.19
2023-05-02T07:40:58.694Z,37.21
2023-05-02T07:41:58.765Z,37.13
2023-05-02T07:42:58.807Z,37.06
2023-05-02T07:43:58.842Z,37.07
2023-05-02T07:44:58.890Z,36.78
2023-05-02T07:45:58.931Z,36.81
2023-05-02T07:46:58.937Z,36.77
2023-05-02T07:47:58.981Z,36.70
2023-05-02T07:48:58.958Z,36.61
2023-05-02T07:49:59.279Z,36.59
2023-05-02T07:50:58.984Z,36.67
2023-05-02T07:51:58.972Z,36.59
2023-05-02T07:52:58.980Z,36.55
2023-05-02T07:53:59.004Z,36.56
2023-05-02T07:54:58.983Z,36.44
2023-05-02T07:55:58.994Z,36.48
2023-05-02T07:56:58.993Z,36.41
2023-05-02T07:57:59.014Z,36.38
2023-05-02T07:58:59.116Z,36.35
2023-05-02T07:59:59.272Z,36.35
2023-05-02T08:00:59.056Z,36.34
2023-05-02T08:01:59.045Z,36.28
2023-05-02T08:02:59.173Z,36.21
2023-05-02T08:03:59.360Z,36.07
2023-05-02T08:04:59.115Z,36.34
2023-05-02T08:05:59.067Z,36.29
2023-05-02T08:06:59.092Z,36.32
2023-05-02T08:07:59.035Z,36.36
2023-05-02T08:08:59.040Z,36.45
2023-05-02T08:09:59.677Z,35.94
2023-05-02T08:10:59.045Z,36.15
2023-05-02T08:11:59.056Z,36.05
2023-05-02T08:12:59.044Z,35.80
2023-05-02T08:13:59.028Z,36.22
2023-05-02T08:14:59.426Z,35.91
2023-05-02T08:15:59.083Z,36.20
2023-05-02T08:16:59.044Z,36.30
2023-05-02T08:17:59.051Z,36.15
2023-05-02T08:18:59.046Z,36.16
2023-05-02T08:19:59.178Z,36.06
2023-05-02T08:20:59.047Z,36.17
2023-05-02T08:21:59.032Z,36.04
2023-05-02T08:23:00.455Z,36.07
2023-05-02T08:23:59.023Z,36.18
2023-05-02T08:24:59.008Z,36.16
2023-05-02T08:25:59.014Z,36.14
2023-05-02T08:26:59.021Z,36.09
2023-05-02T08:27:59.030Z,36.10
2023-05-02T08:28:59.081Z,36.03
2023-05-02T08:30:01.050Z,36.06
2023-05-02T08:30:59.195Z,36.10
2023-05-02T08:31:59.304Z,35.88
2023-05-02T08:32:59.412Z,35.95
2023-05-02T08:33:59.379Z,35.94
2023-05-02T08:34:59.452Z,35.99
2023-05-02T08:35:59.485Z,36.00
2023-05-02T08:36:59.550Z,36.02
2023-05-02T08:37:59.957Z,35.88
2023-05-02T08:38:59.663Z,35.73
2023-05-02T08:39:59.813Z,35.72
2023-05-02T08:40:59.719Z,35.51
2023-05-02T08:41:59.707Z,35.71
2023-05-02T08:42:59.720Z,35.69
2023-05-02T08:43:59.764Z,35.66
2023-05-02T08:44:59.767Z,35.57
2023-05-02T08:45:59.813Z,35.22
2023-05-02T08:46:59.872Z,35.15
2023-05-02T08:47:59.935Z,34.96
2023-05-02T08:48:59.809Z,34.88
2023-05-02T08:49:59.997Z,34.53
2023-05-02T08:50:59.937Z,34.49
2023-05-02T08:51:59.841Z,34.33
2023-05-02T08:52:59.840Z,34.16
2023-05-02T08:53:59.828Z,33.77
2023-05-02T08:55:00.018Z,33.92
2023-05-02T08:55:59.846Z,34.26
2023-05-02T08:56:59.846Z,33.84
2023-05-02T08:57:59.843Z,34.12
2023-05-02T08:58:59.851Z,34.00
2023-05-02T08:59:59.903Z,34.09
2023-05-02T09:00:59.909Z,34.19
2023-05-02T09:01:59.882Z,34.06
2023-05-02T09:02:59.904Z,33.91
2023-05-02T09:03:59.971Z,33.88
2023-05-02T09:05:00.103Z,34.08
2023-05-02T09:05:59.931Z,33.82
2023-05-02T09:06:59.917Z,33.79
2023-05-02T09:07:59.932Z,33.82
2023-05-02T09:08:59.931Z,33.78
2023-05-02T09:09:59.927Z,33.82
2023-05-02T09:10:59.943Z,33.72
2023-05-02T09:12:00.154Z,33.77
2023-05-02T09:12:59.952Z,33.81
2023-05-02T09:13:59.942Z,33.74
2023-05-02T09:15:00.273Z,33.70
2023-05-02T09:15:59.988Z,33.73
2023-05-02T09:17:00.124Z,33.67
2023-05-02T09:18:00.064Z,33.69
2023-05-02T09:18:59.979Z,33.69
2023-05-02T09:19:59.990Z,33.56
2023-05-02T09:20:59.995Z,33.56
2023-05-02T09:21:59.984Z,33.65
2023-05-02T09:23:00.434Z,33.50
2023-05-02T09:24:00.003Z,33.37
2023-05-02T09:25:00.351Z,33.49
2023-05-02T09:26:00.038Z,33.46
2023-05-02T09:27:00.030Z,33.66
2023-05-02T09:28:00.437Z,33.68
2023-05-02T09:29:00.051Z,33.91
2023-05-02T09:30:00.061Z,34.28
2023-05-02T09:31:00.488Z,34.34
2023-05-02T09:32:00.147Z,34.16
2023-05-02T09:33:00.124Z,34.10
2023-05-02T09:34:00.069Z,34.09
2023-05-02T09:35:00.359Z,33.94
2023-05-02T09:36:00.125Z,33.87
2023-05-02T09:37:00.208Z,34.45
2023-05-02T09:38:00.162Z,34.49
2023-05-02T09:39:00.100Z,34.61
2023-05-02T09:40:00.150Z,34.78
2023-05-02T09:41:00.122Z,35.01
2023-05-02T09:42:00.141Z,34.91
2023-05-02T09:43:00.122Z,34.72
2023-05-02T09:44:00.143Z,34.37
2023-05-02T09:45:00.237Z,34.10
2023-05-02T09:46:00.115Z,34.39
2023-05-02T09:47:00.097Z,34.53
2023-05-02T09:48:00.255Z,34.57
2023-05-02T09:49:00.164Z,33.88
2023-05-02T09:50:00.231Z,33.97
2023-05-02T09:51:00.277Z,34.33
2023-05-02T09:52:00.304Z,33.88
2023-05-02T09:53:00.384Z,34.16
2023-05-02T09:54:00.439Z,33.52
2023-05-02T09:55:00.740Z,34.04
2023-05-02T09:56:00.566Z,34.17
2023-05-02T09:57:00.615Z,33.90
2023-05-02T09:58:00.694Z,34.02
2023-05-02T09:59:00.732Z,33.87
2023-05-02T10:00:00.911Z,33.84
2023-05-02T10:01:00.840Z,34.16
2023-05-02T10:02:00.968Z,34.03
2023-05-02T10:03:01.002Z,33.82
2023-05-02T10:04:01.068Z,33.77
2023-05-02T10:05:01.247Z,33.42
2023-05-02T10:06:01.492Z,33.48
2023-05-02T10:07:01.193Z,33.47
2023-05-02T10:08:01.471Z,33.44
2023-05-02T10:09:01.290Z,33.42
2023-05-02T10:10:01.328Z,33.68
2023-05-02T10:11:01.472Z,33.22
2023-05-02T10:12:01.385Z,33.16
2023-05-02T10:13:01.415Z,33.22
2023-05-02T10:14:01.442Z,33.29
2023-05-02T10:15:01.807Z,33.18
2023-05-02T10:16:01.573Z,33.19
2023-05-02T10:17:01.567Z,33.07
2023-05-02T10:18:01.562Z,32.88
2023-05-02T10:19:01.496Z,32.69
2023-05-02T10:20:01.536Z,32.69
2023-05-02T10:21:01.565Z,33.10
2023-05-02T10:22:01.546Z,32.42
2023-05-02T10:23:01.997Z,32.68
2023-05-02T10:24:01.581Z,33.44
2023-05-02T10:25:01.913Z,34.05
2023-05-02T10:26:01.983Z,34.21
2023-05-02T10:27:01.706Z,33.85
2023-05-02T10:28:01.717Z,33.95
2023-05-02T10:29:01.734Z,33.70
2023-05-02T10:30:01.792Z,33.83
2023-05-02T10:31:02.040Z,33.68
2023-05-02T10:32:01.897Z,33.67
2023-05-02T10:33:01.901Z,33.87
2023-05-02T10:34:01.984Z,34.08
2023-05-02T10:35:02.092Z,34.35
2023-05-02T10:36:01.973Z,34.53
2023-05-02T10:37:01.955Z,34.52
2023-05-02T10:38:02.013Z,35.04
2023-05-02T10:39:02.063Z,35.17
2023-05-02T10:40:02.080Z,35.23
2023-05-02T10:41:02.082Z,34.92
2023-05-02T10:42:02.105Z,34.67
2023-05-02T10:43:02.097Z,34.52
2023-05-02T10:44:02.115Z,34.38
2023-05-02T10:45:02.414Z,34.25
2023-05-02T10:46:02.106Z,34.37
2023-05-02T10:47:02.217Z,34.56
2023-05-02T10:48:02.251Z,34.52
2023-05-02T10:49:02.264Z,34.81
2023-05-02T10:50:02.383Z,35.27
2023-05-02T10:51:02.397Z,35.21
2023-05-02T10:52:02.441Z,35.10
2023-05-02T10:53:02.494Z,35.38
2023-05-02T10:54:02.523Z,35.61
2023-05-02T10:55:02.526Z,35.72
2023-05-02T10:56:02.579Z,35.79
2023-05-02T10:57:02.671Z,35.79
2023-05-02T10:58:02.774Z,35.89
2023-05-02T10:59:02.829Z,35.87
2023-05-02T11:00:02.858Z,35.64
2023-05-02T11:01:02.975Z,35.61
2023-05-02T11:02:05.313Z,35.74
2023-05-02T11:03:03.144Z,36.13
2023-05-02T11:04:02.946Z,35.59
2023-05-02T11:05:03.445Z,35.52
2023-05-02T11:06:02.957Z,35.52
2023-05-02T11:07:02.938Z,35.34
2023-05-02T11:08:02.916Z,34.97
2023-05-02T11:09:02.913Z,34.74
2023-05-02T11:10:02.929Z,34.47
2023-05-02T11:11:02.891Z,34.20
2023-05-02T11:12:02.897Z,34.03
2023-05-02T11:13:02.880Z,33.82
2023-05-02T11:14:02.876Z,33.77
2023-05-02T11:15:03.116Z,33.58
2023-05-02T11:16:03.024Z,33.43
2023-05-02T11:17:02.975Z,33.35
2023-05-02T11:18:02.950Z,33.44
2023-05-02T11:19:02.927Z,33.38
2023-05-02T11:20:02.866Z,33.16
2023-05-02T11:21:02.850Z,32.94
2023-05-02T11:22:02.973Z,33.26
2023-05-02T11:23:02.810Z,33.05
2023-05-02T11:24:02.822Z,32.76
2023-05-02T11:25:03.092Z,32.67
2023-05-02T11:26:02.825Z,32.52
2023-05-02T11:27:02.794Z,32.40
2023-05-02T11:28:02.814Z,32.32
2023-05-02T11:29:02.779Z,32.51
2023-05-02T11:30:02.808Z,32.40
2023-05-02T11:31:02.773Z,32.23
2023-05-02T11:32:02.823Z,32.14
2023-05-02T11:33:02.765Z,32.08
2023-05-02T11:34:02.803Z,31.99
2023-05-02T11:35:03.052Z,31.94
2023-05-02T11:36:02.750Z,31.92
2023-05-02T11:37:02.732Z,31.89
2023-05-02T11:38:02.745Z,31.84
2023-05-02T11:39:02.723Z,31.83
2023-05-02T11:40:02.711Z,31.81
2023-05-02T11:41:02.726Z,31.78
2023-05-02T11:42:02.704Z,31.80
2023-05-02T11:43:02.681Z,31.76
2023-05-02T11:44:02.768Z,31.75
2023-05-02T11:45:03.114Z,31.73
2023-05-02T11:46:03.051Z,31.72
2023-05-02T11:47:02.924Z,31.69
2023-05-02T11:48:02.991Z,31.70
2023-05-02T11:49:03.014Z,31.70
2023-05-02T11:50:03.081Z,31.66
2023-05-02T11:51:03.198Z,31.66
2023-05-02T11:52:03.291Z,31.65
2023-05-02T11:53:03.240Z,31.64
2023-05-02T11:54:03.299Z,31.59
2023-05-02T11:55:03.671Z,31.58
2023-05-02T11:56:03.459Z,31.56
2023-05-02T11:57:03.417Z,31.55
2023-05-02T11:58:03.509Z,31.53
2023-05-02T11:59:03.534Z,31.51
2023-05-02T12:00:03.541Z,31.49
2023-05-02T12:01:03.591Z,31.48
2023-05-02T12:02:03.723Z,31.30
2023-05-02T12:03:03.740Z,31.34
2023-05-02T12:04:03.717Z,31.27
2023-05-02T12:05:04.064Z,31.07
2023-05-02T12:06:03.977Z,31.01
2023-05-02T12:07:03.907Z,30.80
2023-05-02T12:08:03.901Z,30.76
2023-05-02T12:09:04.012Z,30.99
2023-05-02T12:10:04.004Z,31.10
2023-05-02T12:11:04.034Z,31.39
2023-05-02T12:12:04.049Z,31.37
2023-05-02T12:13:04.051Z,31.33
2023-05-02T12:14:04.079Z,31.57
2023-05-02T12:15:04.214Z,31.30
2023-05-02T12:16:04.194Z,31.36
2023-05-02T12:17:04.267Z,31.36
2023-05-02T12:18:04.286Z,31.45
2023-05-02T12:19:04.302Z,31.53
2023-05-02T12:20:04.359Z,31.64
2023-05-02T12:21:04.438Z,31.66
2023-05-02T12:22:04.476Z,31.76
2023-05-02T12:23:04.511Z,31.80
2023-05-02T12:24:05.521Z,31.82
2023-05-02T12:25:05.073Z,31.81
2023-05-02T12:26:04.630Z,31.81
2023-05-02T12:27:04.662Z,31.82
2023-05-02T12:28:04.723Z,31.87
2023-05-02T12:29:04.760Z,31.87
2023-05-02T12:30:05.014Z,31.84
2023-05-02T12:31:04.907Z,31.77
2023-05-02T12:32:04.877Z,31.77
2023-05-02T12:33:04.905Z,31.65
2023-05-02T12:34:04.890Z,31.66
2023-05-02T12:35:04.895Z,31.67
2023-05-02T12:36:04.940Z,31.65
2023-05-02T12:37:04.955Z,31.63
2023-05-02T12:38:04.981Z,31.60
2023-05-02T12:39:05.001Z,31.23
2023-05-02T12:40:05.086Z,31.55
2023-05-02T12:41:05.014Z,31.58
2023-05-02T12:42:05.027Z,31.60
2023-05-02T12:43:05.052Z,31.64
2023-05-02T12:44:05.106Z,31.64
2023-05-02T12:45:05.094Z,31.66
2023-05-02T12:46:05.122Z,31.49
2023-05-02T12:47:05.208Z,31.52
2023-05-02T12:48:05.246Z,31.36
2023-05-02T12:49:05.515Z,31.51
2023-05-02T12:50:05.340Z,31.52
2023-05-02T12:51:05.355Z,31.54
2023-05-02T12:52:05.403Z,31.62
2023-05-02T12:53:05.414Z,31.66